Time;durP1;ratioP1;P1;durP2;ratioP2;P2;SDS_P1;SDS_P2;PMS_P1;PMS_P2;Temp;Humidity;BMP_temperature;BMP_pressure;BME280_temperature;BME280_humidity;BME280_pressure;Samples;Min_cycle;Max_cycle;Signal;HPM_P1;HPM_P2
2023/08/24 00:04:14;;;;;;;4.97;4.63;;;25.20;35.80;;;;;;10261141;28;20244;-71
2023/08/24 00:09:17;;;;;;;4.93;4.60;;;25.20;35.60;;;;;;10266008;28;20228;-71
2023/08/24 00:14:22;;;;;;;5.00;4.70;;;25.20;35.50;;;;;;10272960;28;20243;-71
2023/08/24 00:19:25;;;;;;;4.43;4.13;;;25.20;36.00;;;;;;10267291;28;20235;-71
2023/08/24 00:24:28;;;;;;;5.87;5.37;;;25.20;35.60;;;;;;10264291;28;20235;-71
2023/08/24 00:29:33;;;;;;;4.97;4.47;;;25.20;35.50;;;;;;10263128;28;20259;-70
2023/08/24 00:34:36;;;;;;;5.33;4.83;;;25.20;35.90;;;;;;10255606;28;20762;-71
2023/08/24 00:39:39;;;;;;;4.90;4.30;;;25.10;35.70;;;;;;10254984;28;20260;-71
2023/08/24 00:44:44;;;;;;;4.90;4.53;;;25.10;35.90;;;;;;10259800;28;20240;-71
2023/08/24 00:49:47;;;;;;;5.53;5.10;;;25.10;36.20;;;;;;10266496;28;20229;-71
2023/08/24 00:54:50;;;;;;;6.03;5.43;;;25.10;36.00;;;;;;10274904;28;20232;-71
2023/08/24 00:59:55;;;;;;;5.47;5.00;;;25.00;35.80;;;;;;10266520;28;20742;-71
2023/08/24 01:04:59;;;;;;;4.73;4.33;;;24.90;36.20;;;;;;10269030;28;20766;-71
2023/08/24 01:10:04;;;;;;;4.33;4.03;;;24.90;36.20;;;;;;10271698;28;20314;-71
2023/08/24 01:15:14;;;;;;;5.07;4.57;;;24.80;36.30;;;;;;10268584;28;20256;-71
2023/08/24 01:20:19;;;;;;;5.70;4.40;;;24.80;36.90;;;;;;10257153;28;20319;-71
2023/08/24 01:25:38;;;;;;;5.77;5.27;;;24.80;36.70;;;;;;10272408;28;20266;-71
2023/08/24 01:30:45;;;;;;;5.23;4.90;;;24.80;36.90;;;;;;10266609;28;20752;-72
2023/08/24 01:35:48;;;;;;;5.77;5.27;;;24.70;36.90;;;;;;10276443;28;20263;-72
2023/08/24 01:41:00;;;;;;;5.70;5.30;;;24.60;36.30;;;;;;10273701;28;20278;-71
2023/08/24 01:46:07;;;;;;;5.77;5.33;;;24.50;37.00;;;;;;10265059;28;20228;-72
2023/08/24 01:51:11;;;;;;;5.37;4.97;;;24.40;37.00;;;;;;10275153;28;20260;-71
2023/08/24 01:56:17;;;;;;;5.70;5.30;;;24.30;36.80;;;;;;10264249;28;20626;-72
2023/08/24 02:01:21;;;;;;;5.40;5.00;;;24.30;37.30;;;;;;10272700;28;20243;-71
2023/08/24 02:06:26;;;;;;;5.40;5.00;;;24.20;37.30;;;;;;10272206;28;20384;-72
2023/08/24 02:11:29;;;;;;;6.30;5.17;;;24.00;36.90;;;;;;10266280;28;20786;-72
2023/08/24 02:16:33;;;;;;;5.83;5.17;;;24.00;37.20;;;;;;10261280;28;20717;-72
2023/08/24 02:21:37;;;;;;;5.63;5.23;;;24.00;37.70;;;;;;10270831;28;20235;-72
2023/08/24 02:26:40;;;;;;;5.03;4.47;;;23.90;37.40;;;;;;10262634;28;20334;-72
2023/08/24 02:31:45;;;;;;;5.17;4.77;;;23.80;37.30;;;;;;10266411;28;20351;-72
2023/08/24 02:36:48;;;;;;;5.00;4.53;;;23.70;37.80;;;;;;10271984;28;20238;-72
2023/08/24 02:41:52;;;;;;;4.20;3.90;;;23.80;37.60;;;;;;10283638;28;20242;-72
2023/08/24 02:46:57;;;;;;;5.53;5.03;;;23.70;37.60;;;;;;10271996;28;20234;-72
2023/08/24 02:52:00;;;;;;;5.50;4.80;;;23.70;38.00;;;;;;10273988;28;20318;-72
2023/08/24 02:57:04;;;;;;;4.57;4.27;;;23.70;37.60;;;;;;10264597;28;20238;-72
2023/08/24 03:02:09;;;;;;;5.00;4.60;;;23.70;37.70;;;;;;10268040;28;20817;-71
2023/08/24 03:07:12;;;;;;;5.30;4.90;;;23.70;38.20;;;;;;10262420;28;20758;-72
2023/08/24 03:12:15;;;;;;;4.70;4.40;;;23.70;37.80;;;;;;10271886;28;20232;-72
2023/08/24 03:17:19;;;;;;;5.30;4.90;;;23.70;37.70;;;;;;10260931;28;20240;-72
2023/08/24 03:22:23;;;;;;;6.30;5.70;;;23.60;38.30;;;;;;10275533;28;20239;-73
2023/08/24 03:27:26;;;;;;;5.70;5.10;;;23.60;38.00;;;;;;10269246;28;20239;-71
2023/08/24 03:32:30;;;;;;;6.27;5.77;;;23.60;38.10;;;;;;10262309;28;20232;-71
2023/08/24 03:37:33;;;;;;;5.97;5.47;;;23.50;38.60;;;;;;10258131;28;20618;-71
2023/08/24 03:42:38;;;;;;;5.70;5.10;;;23.50;38.30;;;;;;10268822;28;20307;-71
2023/08/24 03:47:42;;;;;;;5.10;4.70;;;23.40;38.30;;;;;;10261969;28;20307;-71
2023/08/24 03:52:45;;;;;;;5.17;4.67;;;23.40;38.90;;;;;;10271275;28;20239;-71
2023/08/24 03:57:49;;;;;;;5.57;5.07;;;23.30;38.60;;;;;;10274588;28;20738;-71
2023/08/24 04:02:54;;;;;;;5.40;5.07;;;23.30;38.60;;;;;;10256464;28;20655;-71
2023/08/24 04:07:57;;;;;;;5.30;4.80;;;23.40;39.00;;;;;;10267869;28;20220;-71
2023/08/24 04:13:00;;;;;;;4.87;4.47;;;23.40;38.60;;;;;;10260838;28;20592;-71
2023/08/24 04:18:05;;;;;;;5.30;4.80;;;23.30;38.50;;;;;;10265918;28;20253;-71
2023/08/24 04:23:10;;;;;;;5.67;5.07;;;23.40;39.00;;;;;;10263222;28;20243;-71
2023/08/24 04:28:13;;;;;;;5.70;5.23;;;23.30;38.80;;;;;;10250366;28;20319;-71
2023/08/24 04:33:17;;;;;;;5.70;5.17;;;23.30;39.40;;;;;;10261245;28;20254;-70
2023/08/24 04:38:20;;;;;;;5.10;4.70;;;23.30;39.10;;;;;;10254331;28;20235;-71
2023/08/24 04:43:25;;;;;;;5.90;5.30;;;23.20;38.60;;;;;;10264171;28;20231;-71
2023/08/24 04:48:32;;;;;;;5.40;4.90;;;23.20;39.30;;;;;;10273148;28;20657;-71
2023/08/24 04:53:35;;;;;;;5.20;4.80;;;23.10;39.20;;;;;;10271448;28;20807;-71
2023/08/24 04:58:38;;;;;;;5.27;4.87;;;23.10;39.20;;;;;;10265900;28;20256;-72
2023/08/24 05:03:43;;;;;;;5.60;5.07;;;23.10;39.20;;;;;;10262641;28;20228;-71
2023/08/24 05:08:46;;;;;;;4.77;4.47;;;23.00;39.10;;;;;;10277268;28;20238;-72
2023/08/24 05:13:49;;;;;;;4.60;4.30;;;23.00;39.10;;;;;;10279181;28;20619;-71
2023/08/24 05:18:54;;;;;;;5.43;4.93;;;23.00;39.10;;;;;;10249142;28;20236;-72
2023/08/24 05:23:57;;;;;;;6.70;5.60;;;23.00;39.40;;;;;;10249474;29;20247;-72
2023/08/24 05:29:00;;;;;;;6.00;5.50;;;23.00;39.10;;;;;;10285047;28;20235;-72
2023/08/24 05:34:05;;;;;;;5.73;5.23;;;23.00;39.10;;;;;;10288472;28;20319;-72
2023/08/24 05:39:08;;;;;;;5.10;4.73;;;23.00;39.90;;;;;;10288861;28;20323;-72
2023/08/24 05:44:12;;;;;;;6.43;5.93;;;23.00;39.20;;;;;;10288430;28;20754;-72
2023/08/24 05:49:16;;;;;;;6.30;5.80;;;23.00;39.90;;;;;;10287920;28;20235;-71
2023/08/24 05:54:20;;;;;;;6.93;6.33;;;23.10;40.50;;;;;;10287843;28;20235;-72
2023/08/24 05:59:23;;;;;;;6.30;5.80;;;23.10;40.20;;;;;;10276374;28;20240;-72
2023/08/24 06:04:27;;;;;;;6.77;6.17;;;23.20;40.30;;;;;;10271141;28;20255;-72
2023/08/24 06:09:31;;;;;;;7.40;6.77;;;23.20;40.70;;;;;;10279486;28;20223;-73
2023/08/24 06:14:34;;;;;;;7.33;6.70;;;23.20;40.20;;;;;;10279109;28;20804;-73
2023/08/24 06:19:39;;;;;;;6.83;6.23;;;23.30;40.00;;;;;;10278783;28;20244;-71
2023/08/24 06:24:42;;;;;;;7.17;6.57;;;23.40;40.20;;;;;;10259338;28;20319;-72
2023/08/24 06:29:45;;;;;;;7.20;6.60;;;23.40;40.20;;;;;;10278717;28;20242;-72
2023/08/24 06:34:50;;;;;;;7.47;6.87;;;23.50;40.40;;;;;;10278819;28;20238;-72
2023/08/24 06:39:53;;;;;;;8.13;7.43;;;23.60;40.90;;;;;;10275014;28;20243;-72
2023/08/24 06:44:56;;;;;;;7.87;7.27;;;23.60;40.30;;;;;;10242111;28;20311;-71
2023/08/24 06:50:01;;;;;;;8.73;8.10;;;23.70;40.70;;;;;;10260931;28;20238;-76
2023/08/24 06:55:05;;;;;;;8.60;7.90;;;23.80;41.30;;;;;;10270322;28;20227;-76
2023/08/24 07:00:09;;;;;;;8.70;8.00;;;23.90;41.00;;;;;;10265953;28;20781;-75
2023/08/24 07:05:14;;;;;;;9.17;8.10;;;24.00;41.70;;;;;;10284637;28;20330;-76
2023/08/24 07:10:17;;;;;;;8.47;7.43;;;24.00;42.00;;;;;;10268459;28;20232;-74
2023/08/24 07:15:20;;;;;;;7.80;7.20;;;24.10;41.40;;;;;;10261825;28;20228;-74
2023/08/24 07:20:25;;;;;;;7.13;6.63;;;24.30;41.70;;;;;;10271844;28;20263;-74
2023/08/24 07:25:28;;;;;;;7.90;7.10;;;24.30;41.80;;;;;;10268608;28;20310;-74
2023/08/24 07:30:32;;;;;;;8.00;7.27;;;24.50;41.50;;;;;;10282211;28;20239;-73
2023/08/24 07:35:39;;;;;;;8.40;7.60;;;24.60;42.00;;;;;;10276601;28;20235;-74
2023/08/24 07:40:42;;;;;;;7.97;7.37;;;24.80;42.30;;;;;;10267327;28;20263;-74
2023/08/24 07:45:45;;;;;;;7.10;6.60;;;24.90;41.80;;;;;;10278474;28;20667;-74
2023/08/24 07:50:50;;;;;;;8.53;6.20;;;25.10;41.90;;;;;;10266468;28;20236;-75
2023/08/24 07:55:54;;;;;;;6.87;6.27;;;25.30;42.10;;;;;;10272749;28;20254;-73
2023/08/24 08:00:57;;;;;;;6.53;6.03;;;25.50;42.00;;;;;;10262634;28;20236;-74
2023/08/24 08:06:03;;;;;;;6.30;5.30;;;25.70;41.30;;;;;;10266964;28;20243;-73
2023/08/24 08:11:06;;;;;;;4.20;3.90;;;26.10;41.60;;;;;;10270198;28;20260;-74
2023/08/24 08:16:09;;;;;;;4.37;3.97;;;26.30;40.70;;;;;;10272392;28;20388;-76
2023/08/24 08:21:17;;;;;;;3.97;3.57;;;26.60;39.90;;;;;;10276022;28;20232;-73
2023/08/24 08:26:24;;;;;;;5.27;3.20;;;27.00;38.00;;;;;;10261651;28;20235;-73
2023/08/24 08:31:27;;;;;;;3.83;3.43;;;27.40;38.50;;;;;;10274845;28;20231;-73
2023/08/24 08:36:33;;;;;;;4.03;3.00;;;27.80;37.70;;;;;;10274330;28;20295;-73
2023/08/24 08:41:42;;;;;;;3.80;3.23;;;28.10;36.30;;;;;;10259019;28;20294;-74
2023/08/24 08:46:47;;;;;;;3.90;3.50;;;28.40;34.70;;;;;;10261252;28;20571;-73
2023/08/24 08:51:52;;;;;;;3.40;3.00;;;28.70;35.40;;;;;;10260532;28;20239;-73
2023/08/24 08:56:56;;;;;;;3.10;2.90;;;28.90;34.50;;;;;;10238649;28;20236;-72
2023/08/24 09:02:01;;;;;;;3.47;3.17;;;29.20;35.10;;;;;;10265586;28;20231;-72
2023/08/24 09:07:10;;;;;;;4.73;3.03;;;29.40;34.20;;;;;;10261112;28;20326;-72
2023/08/24 09:12:14;;;;;;;4.00;3.17;;;29.60;33.40;;;;;;10260183;28;20235;-71
2023/08/24 09:17:23;;;;;;;3.60;3.30;;;29.70;33.60;;;;;;10247022;28;20275;-72
2023/08/24 09:22:28;;;;;;;3.37;3.17;;;29.80;31.40;;;;;;10259810;28;20311;-72
2023/08/24 09:27:35;;;;;;;3.40;3.20;;;29.90;32.40;;;;;;10248740;28;20259;-73
2023/08/24 09:32:38;;;;;;;3.70;3.40;;;30.00;31.50;;;;;;10248529;28;20930;-73
2023/08/24 09:37:45;;;;;;;3.70;3.40;;;30.30;32.30;;;;;;10251981;28;20235;-73
2023/08/24 09:42:49;;;;;;;4.50;3.23;;;30.50;31.90;;;;;;10253085;28;21166;-73
2023/08/24 09:47:53;;;;;;;3.50;3.20;;;30.70;31.90;;;;;;10271765;28;20227;-72
2023/08/24 09:53:02;;;;;;;4.73;3.50;;;31.00;31.30;;;;;;10268916;28;20319;-73
2023/08/24 09:58:09;;;;;;;3.60;3.30;;;31.20;30.40;;;;;;10270245;28;20231;-73
2023/08/24 10:03:16;;;;;;;6.57;3.57;;;31.40;30.50;;;;;;10267669;28;20260;-72
2023/08/24 10:08:25;;;;;;;4.23;3.70;;;31.60;30.30;;;;;;10265521;28;20275;-73
2023/08/24 10:13:37;;;;;;;3.97;3.67;;;31.90;28.90;;;;;;10265452;28;20747;-72
2023/08/24 10:18:41;;;;;;;3.80;3.47;;;32.00;28.80;;;;;;10274436;28;20234;-73
2023/08/24 10:23:48;;;;;;;4.30;3.90;;;32.10;29.30;;;;;;10271955;28;20231;-73
2023/08/24 10:28:52;;;;;;;4.10;3.70;;;32.30;28.80;;;;;;10275673;28;20718;-73
2023/08/24 10:33:56;;;;;;;4.83;3.90;;;32.50;29.50;;;;;;10280178;28;20697;-73
2023/08/24 10:39:06;;;;;;;4.40;4.10;;;32.60;28.90;;;;;;10256344;28;20244;-72
2023/08/24 10:44:21;;;;;;;4.47;4.17;;;32.80;28.00;;;;;;10277089;28;22040;-72
2023/08/24 10:49:30;;;;;;;4.53;4.23;;;32.90;28.30;;;;;;10275802;28;20232;-72
2023/08/24 10:54:44;;;;;;;5.77;4.17;;;33.00;27.80;;;;;;10260283;28;20249;-73
2023/08/24 11:00:05;;;;;;;5.17;3.93;;;33.20;27.90;;;;;;10271290;28;20241;-72
2023/08/24 11:05:17;;;;;;;4.87;4.00;;;33.30;27.50;;;;;;10268475;28;20670;-71
2023/08/24 11:10:23;;;;;;;4.20;3.83;;;33.40;27.40;;;;;;10269978;28;20247;-72
2023/08/24 11:15:38;;;;;;;4.67;4.27;;;33.50;27.40;;;;;;10263887;28;20236;-72
2023/08/24 11:20:44;;;;;;;4.40;4.10;;;33.60;26.40;;;;;;10273087;28;20235;-71
2023/08/24 11:25:54;;;;;;;4.30;3.90;;;33.70;26.90;;;;;;10258657;28;20704;-72
2023/08/24 11:30:59;;;;;;;5.20;4.00;;;33.70;26.50;;;;;;10274488;28;20246;-71
2023/08/24 11:36:07;;;;;;;4.00;3.73;;;33.80;26.80;;;;;;10280101;28;20259;-71
2023/08/24 11:41:16;;;;;;;4.43;4.03;;;33.90;26.30;;;;;;10283280;28;20237;-72
2023/08/24 11:46:20;;;;;;;4.40;4.00;;;34.00;25.60;;;;;;10266082;28;20237;-73
2023/08/24 11:51:23;;;;;;;4.13;3.83;;;34.00;26.30;;;;;;10242379;28;20238;-70
2023/08/24 11:56:47;;;;;;;4.27;3.87;;;34.00;26.30;;;;;;10266627;28;20298;-71
2023/08/24 12:01:52;;;;;;;4.30;4.00;;;34.10;25.70;;;;;;10278374;28;20927;-73
2023/08/24 12:06:55;;;;;;;3.93;3.63;;;34.10;25.90;;;;;;10281676;28;20224;-74
2023/08/24 12:12:01;;;;;;;4.00;3.70;;;34.20;25.80;;;;;;10281876;28;20277;-74
2023/08/24 12:17:08;;;;;;;3.80;3.50;;;34.30;25.10;;;;;;10280964;28;20230;-74
2023/08/24 12:22:14;;;;;;;3.50;3.30;;;34.40;24.60;;;;;;10278710;28;20318;-73
2023/08/24 12:27:23;;;;;;;3.60;3.30;;;34.40;24.40;;;;;;10272232;28;20263;-73
2023/08/24 12:32:30;;;;;;;5.30;3.50;;;34.50;23.90;;;;;;10273534;28;20336;-74
2023/08/24 12:37:34;;;;;;;4.00;3.60;;;34.50;24.70;;;;;;10275220;28;20235;-74
2023/08/24 12:42:38;;;;;;;3.43;3.10;;;34.50;24.30;;;;;;10272849;28;20238;-73
2023/08/24 12:47:42;;;;;;;3.47;3.17;;;34.60;23.50;;;;;;10262615;28;20245;-73
2023/08/24 12:52:45;;;;;;;3.93;3.37;;;34.60;24.30;;;;;;10269102;28;20235;-72
2023/08/24 12:57:49;;;;;;;4.37;3.87;;;34.70;24.10;;;;;;10264982;28;20241;-72
2023/08/24 13:02:53;;;;;;;4.80;4.07;;;34.70;23.50;;;;;;10274565;28;20234;-73
2023/08/24 13:07:56;;;;;;;4.53;4.07;;;34.70;23.50;;;;;;10284961;28;20724;-73
2023/08/24 13:13:03;;;;;;;3.67;3.30;;;34.80;23.60;;;;;;10277385;28;20236;-73
2023/08/24 13:18:06;;;;;;;3.13;2.93;;;34.80;23.10;;;;;;10287905;28;20231;-73
2023/08/24 13:23:09;;;;;;;3.13;2.93;;;34.90;23.00;;;;;;10280718;28;20238;-73
2023/08/24 13:28:14;;;;;;;3.37;3.07;;;34.90;23.40;;;;;;10273901;28;20635;-74
2023/08/24 13:33:18;;;;;;;3.23;2.97;;;34.90;22.10;;;;;;10266247;28;20247;-75
2023/08/24 13:38:21;;;;;;;3.97;3.20;;;35.00;22.60;;;;;;10263015;28;20243;-74
2023/08/24 13:43:26;;;;;;;6.33;3.23;;;35.00;22.30;;;;;;10276107;28;21069;-74
2023/08/24 13:48:33;;;;;;;5.77;3.50;;;35.00;22.30;;;;;;10262759;28;20239;-74
2023/08/24 13:53:36;;;;;;;3.70;3.40;;;35.00;22.50;;;;;;10270303;28;20243;-74
2023/08/24 13:58:41;;;;;;;6.27;3.33;;;35.00;22.30;;;;;;10267531;28;20247;-73
2023/08/24 14:03:47;;;;;;;7.03;4.00;;;35.00;21.90;;;;;;10266728;28;20246;-75
2023/08/24 14:08:51;;;;;;;5.93;3.80;;;35.10;22.30;;;;;;10267109;28;20503;-75
2023/08/24 14:13:55;;;;;;;6.53;3.40;;;35.10;22.00;;;;;;10260904;28;20798;-74
2023/08/24 14:18:59;;;;;;;4.03;3.57;;;35.10;22.10;;;;;;10266788;28;20319;-74
2023/08/24 14:24:04;;;;;;;3.83;3.53;;;35.10;21.90;;;;;;10276596;28;20250;-74
2023/08/24 14:29:09;;;;;;;6.17;4.07;;;35.10;22.00;;;;;;10269029;28;20290;-73
2023/08/24 14:34:12;;;;;;;5.03;4.00;;;35.10;21.80;;;;;;10274722;28;20305;-72
2023/08/24 14:39:16;;;;;;;4.57;4.17;;;35.10;22.00;;;;;;10285016;28;20651;-72
2023/08/24 14:44:21;;;;;;;12.27;3.93;;;35.20;21.90;;;;;;10285027;28;20344;-74
2023/08/24 14:49:24;;;;;;;4.20;3.80;;;35.20;21.60;;;;;;10284947;28;20314;-72
2023/08/24 14:54:28;;;;;;;6.10;3.97;;;35.20;21.90;;;;;;10281000;28;20245;-76
2023/08/24 14:59:33;;;;;;;4.80;3.83;;;35.20;21.80;;;;;;10258324;28;20255;-75
2023/08/24 15:04:36;;;;;;;5.30;4.50;;;35.20;21.70;;;;;;10261649;28;20243;-75
2023/08/24 15:09:40;;;;;;;5.80;4.17;;;35.20;21.90;;;;;;10270369;28;20251;-75
2023/08/24 15:14:58;;;;;;;6.53;3.57;;;35.20;22.50;;;;;;10276231;28;20238;-75
2023/08/24 15:20:01;;;;;;;4.70;3.60;;;35.20;21.20;;;;;;10277458;28;20745;-75
2023/08/24 15:25:05;;;;;;;8.00;4.30;;;35.30;21.40;;;;;;10275797;28;20232;-75
2023/08/24 15:30:10;;;;;;;5.07;3.77;;;35.30;21.20;;;;;;10281642;28;20233;-74
2023/08/24 15:35:15;;;;;;;4.37;3.80;;;35.40;20.80;;;;;;10276919;28;20269;-73
2023/08/24 15:40:19;;;;;;;4.43;3.90;;;35.40;21.10;;;;;;10282695;28;20233;-74
2023/08/24 15:45:23;;;;;;;6.80;4.00;;;35.40;21.10;;;;;;10282456;28;20238;-72
2023/08/24 15:50:27;;;;;;;4.73;3.80;;;35.50;20.50;;;;;;10274931;28;20366;-75
2023/08/24 15:55:31;;;;;;;3.73;3.40;;;35.40;20.80;;;;;;10274342;28;20242;-73
2023/08/24 16:00:36;;;;;;;5.87;3.73;;;35.40;20.80;;;;;;10281554;28;20238;-72
2023/08/24 16:05:39;;;;;;;4.33;3.50;;;35.40;20.70;;;;;;10281706;28;20228;-72
2023/08/24 16:10:44;;;;;;;4.60;3.50;;;35.30;20.80;;;;;;10281838;28;20255;-72
2023/08/24 16:15:48;;;;;;;4.23;3.70;;;35.30;20.80;;;;;;10282831;28;20688;-72
2023/08/24 16:20:51;;;;;;;6.40;3.80;;;35.20;20.60;;;;;;10267365;28;20731;-72
2023/08/24 16:25:55;;;;;;;3.57;3.27;;;35.20;20.70;;;;;;10283124;28;20236;-73
2023/08/24 16:30:59;;;;;;;4.67;3.80;;;35.10;20.80;;;;;;10282534;28;20238;-72
2023/08/24 16:36:03;;;;;;;6.50;3.90;;;35.00;21.20;;;;;;10283009;28;20256;-72
2023/08/24 16:41:06;;;;;;;5.47;3.53;;;35.00;21.30;;;;;;10285082;28;20315;-72
2023/08/24 16:46:10;;;;;;;5.37;3.60;;;34.90;21.60;;;;;;10291044;28;20230;-73
2023/08/24 16:51:13;;;;;;;4.77;3.73;;;34.80;22.60;;;;;;10283122;28;20269;-71
2023/08/24 16:56:17;;;;;;;7.00;3.77;;;34.70;22.90;;;;;;10285892;28;20305;-71
2023/08/24 17:01:21;;;;;;;5.20;3.80;;;34.60;23.00;;;;;;10275410;28;20245;-71
2023/08/24 17:06:25;;;;;;;5.57;3.93;;;34.50;23.40;;;;;;10274223;28;20283;-72
2023/08/24 17:11:28;;;;;;;6.63;3.57;;;34.30;23.10;;;;;;10273087;28;20240;-72
2023/08/24 17:16:33;;;;;;;5.57;4.00;;;34.20;23.30;;;;;;10280176;28;20227;-72
2023/08/24 17:21:36;;;;;;;5.20;4.07;;;34.10;23.20;;;;;;10260801;28;20233;-76
2023/08/24 17:26:39;;;;;;;4.30;3.90;;;33.90;23.10;;;;;;10264535;28;20254;-75
2023/08/24 17:31:44;;;;;;;4.83;3.97;;;33.80;23.10;;;;;;10262889;28;20232;-76
2023/08/24 17:36:47;;;;;;;4.20;3.70;;;33.60;23.50;;;;;;10273822;28;20424;-77
2023/08/24 17:41:51;;;;;;;4.33;3.93;;;33.50;23.50;;;;;;10266668;28;20323;-77
2023/08/24 17:46:55;;;;;;;4.13;3.70;;;33.40;23.70;;;;;;10275238;28;20863;-77
2023/08/24 17:51:58;;;;;;;5.00;4.13;;;33.20;24.00;;;;;;10274087;28;20264;-77
2023/08/24 17:57:02;;;;;;;4.50;4.10;;;33.10;24.00;;;;;;10274074;28;20227;-77
2023/08/24 18:02:07;;;;;;;4.73;3.73;;;32.90;24.10;;;;;;10272415;28;20303;-76
2023/08/24 18:07:10;;;;;;;4.57;3.70;;;32.80;24.50;;;;;;10262724;28;20638;-77
2023/08/24 18:12:13;;;;;;;4.37;3.97;;;32.70;24.40;;;;;;10265639;28;20240;-77
2023/08/24 18:17:18;;;;;;;4.23;3.70;;;32.60;24.30;;;;;;10266679;28;20229;-77
2023/08/24 18:22:21;;;;;;;4.63;4.17;;;32.50;24.80;;;;;;10259753;28;20236;-76
2023/08/24 18:27:25;;;;;;;4.50;4.10;;;32.30;24.90;;;;;;10271728;28;20238;-77
2023/08/24 18:32:29;;;;;;;9.60;3.90;;;32.30;25.10;;;;;;10265653;28;20310;-77
2023/08/24 18:37:33;;;;;;;4.53;3.73;;;32.20;25.40;;;;;;10265957;28;21099;-77
2023/08/24 18:42:37;;;;;;;4.27;3.70;;;32.10;25.30;;;;;;10270125;28;20228;-76
2023/08/24 18:47:41;;;;;;;4.30;3.90;;;32.00;25.30;;;;;;10262515;28;20316;-76
2023/08/24 18:52:45;;;;;;;5.00;3.80;;;32.00;25.70;;;;;;10266207;28;20259;-76
2023/08/24 18:57:48;;;;;;;4.40;4.03;;;31.80;25.50;;;;;;10269614;28;20227;-77
2023/08/24 19:02:53;;;;;;;4.73;3.93;;;31.80;25.60;;;;;;10263797;28;20741;-76
2023/08/24 19:07:56;;;;;;;4.10;3.70;;;31.70;25.80;;;;;;10259185;28;20286;-77
2023/08/24 19:13:00;;;;;;;5.87;4.00;;;31.60;25.60;;;;;;10256711;28;20734;-77
2023/08/24 19:18:07;;;;;;;4.47;4.07;;;31.50;25.70;;;;;;10271178;28;20315;-77
2023/08/24 19:23:10;;;;;;;4.80;4.33;;;31.40;26.00;;;;;;10260402;28;20295;-77
2023/08/24 19:28:13;;;;;;;4.07;3.73;;;31.30;26.00;;;;;;10272462;28;20322;-76
2023/08/24 19:33:18;;;;;;;4.47;4.07;;;31.20;26.20;;;;;;10268220;28;20691;-77
2023/08/24 19:38:21;;;;;;;6.37;4.57;;;31.10;26.70;;;;;;10260412;28;20704;-76
2023/08/24 19:43:24;;;;;;;5.27;4.70;;;31.00;26.40;;;;;;10268391;28;20243;-76
2023/08/24 19:48:30;;;;;;;6.07;4.57;;;30.90;27.10;;;;;;10265696;28;20232;-78
2023/08/24 19:53:33;;;;;;;4.90;4.40;;;30.70;26.80;;;;;;10262139;28;20259;-77
2023/08/24 19:58:36;;;;;;;5.10;4.10;;;30.60;26.70;;;;;;10269798;28;20603;-77
2023/08/24 20:03:41;;;;;;;4.87;4.40;;;30.50;26.90;;;;;;10275642;28;20232;-77
2023/08/24 20:08:44;;;;;;;4.40;4.00;;;30.40;27.40;;;;;;10260318;28;20242;-75
2023/08/24 20:13:48;;;;;;;4.73;4.33;;;30.30;27.40;;;;;;10273509;28;20601;-76
2023/08/24 20:18:53;;;;;;;5.87;4.47;;;30.10;27.70;;;;;;10269403;28;20783;-74
2023/08/24 20:23:56;;;;;;;8.10;4.50;;;30.00;28.00;;;;;;10270466;28;20319;-75
2023/08/24 20:28:59;;;;;;;6.37;4.60;;;29.80;28.00;;;;;;10283980;28;20645;-74
2023/08/24 20:34:05;;;;;;;5.40;4.30;;;29.80;28.20;;;;;;10272722;28;20776;-74
2023/08/24 20:39:09;;;;;;;6.27;4.23;;;29.70;28.60;;;;;;10276124;28;20704;-75
2023/08/24 20:44:13;;;;;;;5.70;4.57;;;29.70;28.40;;;;;;10283995;28;20294;-75
2023/08/24 20:49:17;;;;;;;7.33;3.17;;;29.60;29.10;;;;;;10261990;28;20760;-75
2023/08/24 21:55:50;;;;;;;3.43;1.37;;;20.60;39.60;;;;;;10480364;27;20570;-71
2023/08/24 22:01:01;;;;;;;1.90;1.30;;;20.70;44.70;;;;;;10478889;28;20227;-71
2023/08/24 22:06:05;;;;;;;2.20;1.20;;;21.40;45.20;;;;;;10479058;28;20236;-70
2023/08/24 22:11:09;;;;;;;1.77;1.53;;;22.00;40.60;;;;;;10479039;28;20238;-72
2023/08/24 22:16:12;;;;;;;3.07;1.50;;;22.60;41.70;;;;;;10479053;28;20315;-72
2023/08/24 22:21:16;;;;;;;3.10;1.57;;;23.10;39.30;;;;;;10478872;28;20253;-71
2023/08/24 22:26:20;;;;;;;2.37;1.50;;;23.50;39.60;;;;;;10478388;28;20236;-71
2023/08/24 22:31:23;;;;;;;2.97;1.80;;;23.80;39.80;;;;;;10478513;28;20256;-72
2023/08/24 22:36:27;;;;;;;3.13;1.70;;;24.10;38.80;;;;;;10478394;28;20233;-71
2023/08/24 22:41:31;;;;;;;2.03;1.60;;;24.30;38.50;;;;;;10478052;28;20227;-71
2023/08/24 22:46:35;;;;;;;2.83;1.73;;;24.30;39.10;;;;;;10477884;28;20670;-71
2023/08/24 22:51:38;;;;;;;1.67;1.57;;;24.30;38.60;;;;;;10477530;28;20319;-71
2023/08/24 22:56:43;;;;;;;2.53;1.80;;;24.20;38.70;;;;;;10477682;28;20232;-72
2023/08/24 23:01:46;;;;;;;2.40;1.53;;;24.20;40.00;;;;;;10477588;28;20238;-72
2023/08/24 23:07:04;;;;;;;2.57;1.73;;;24.10;39.00;;;;;;10451516;28;20232;-71
2023/08/24 23:12:09;;;;;;;2.17;1.87;;;24.10;40.90;;;;;;10449579;28;20235;-72
2023/08/24 23:17:13;;;;;;;2.43;1.80;;;24.00;40.20;;;;;;10449168;28;20237;-72
2023/08/24 23:22:16;;;;;;;6.10;1.60;;;23.90;39.90;;;;;;10449499;28;20237;-71
2023/08/24 23:27:20;;;;;;;2.87;1.93;;;23.80;39.80;;;;;;10448838;28;20235;-72
2023/08/24 23:32:24;;;;;;;3.07;1.33;;;23.70;40.70;;;;;;10448430;28;20256;-71
2023/08/24 23:37:27;;;;;;;2.90;1.90;;;23.70;39.80;;;;;;10448561;28;20312;-72
2023/08/24 23:42:31;;;;;;;3.93;2.03;;;23.60;39.80;;;;;;10448463;28;20231;-71
2023/08/24 23:47:35;;;;;;;3.00;2.13;;;23.60;41.30;;;;;;10447917;28;20225;-72
2023/08/24 23:52:38;;;;;;;2.47;2.10;;;23.60;40.50;;;;;;10447906;28;20264;-72
2023/08/24 23:57:42;;;;;;;4.50;2.47;;;23.60;40.60;;;;;;10447475;28;20260;-71
